PWSweather.com
Personal Weather Stations
Station Observations
KM4VKY
Mossy Head, Crestview, FL 32539

Mossy HeadCrestview, FL 32539

Lat: 30.70978546, Lon: -86.40254974

Elevation: 215

Station Type: Acurite

Latest ConditionsUpdated 2:55:00 AM CST Thursday, Dec 12, 2019
Currently Today's Max Today's Min Today's Average
Temperature 46.1°F7.8°C 47.1°F8.4°C 45.3°F7.4°C 46.2°F7.9°C
Dew Point 39.1°F3.9°C 39.2°F4.0°C 34.9°F1.6°C 36.8°F2.7°C
Winds 2.8 mph NE4.5 kmh NE 3.6 mph -5.8 kmh - - 2.1 mph 3.4 kmh
Wind Gusts 4.7 mph7.6 kmh 5.3 mph8.5 kmh - -
Humidity 76% 76% 63% 70%
Pressure 30.29 in1025.7 mb 30.31 in1026.4 mb 30.29 in1025.7 mb -
Hour Temp Dew Point Humidity Winds Wind Gusts Pressure Precip Precip Rate Daily Precip Total
02:55 AM 46.1°F7.8°C 39.1°F3.9°C 76% 2.8 mph NE4.5 kmh NE 4.7 mph7.6 kmh 30.29 in1025.7 mb 0.00 in0.0 mm 0.00 in0.0 mm 0.00 in0.0 mm
02:50 AM 46.2°F7.9°C 39.2°F4.0°C 76% 2.2 mph SSE3.5 kmh SSE 3.7 mph6.0 kmh 30.29 in1025.7 mb 0.00 in0.0 mm 0.00 in0.0 mm 0.00 in0.0 mm
02:45 AM 46.2°F7.9°C 38.7°F3.7°C 75% 2.4 mph SE3.9 kmh SE 4.2 mph6.8 kmh 30.29 in1025.7 mb 0.00 in0.0 mm 0.00 in0.0 mm 0.00 in0.0 mm
02:40 AM 46.2°F7.9°C 38.8°F3.8°C 75% 2.7 mph NE4.3 kmh NE 4.7 mph7.6 kmh 30.29 in1025.7 mb 0.00 in0.0 mm 0.00 in0.0 mm 0.00 in0.0 mm
02:35 AM 46.2°F7.9°C 38.5°F3.6°C 74% 2.9 mph SSE4.7 kmh SSE 3.2 mph5.1 kmh 30.29 in1025.7 mb 0.00 in0.0 mm 0.00 in0.0 mm 0.00 in0.0 mm
02:30 AM 46.0°F7.8°C 38.0°F3.3°C 73% 3.6 mph N5.8 kmh N 4.7 mph7.6 kmh 30.30 in1026.1 mb 0.00 in0.0 mm 0.00 in0.0 mm 0.00 in0.0 mm
02:25 AM 46.0°F7.8°C 38.1°F3.4°C 74% 2.9 mph NE4.7 kmh NE 5.3 mph8.5 kmh 30.30 in1026.1 mb 0.00 in0.0 mm 0.00 in0.0 mm 0.00 in0.0 mm
02:20 AM 46.0°F7.8°C 38.0°F3.3°C 74% 3.0 mph NE4.8 kmh NE 4.2 mph6.8 kmh 30.30 in1026.1 mb 0.00 in0.0 mm 0.00 in0.0 mm 0.00 in0.0 mm
02:15 AM 46.0°F7.8°C 38.1°F3.4°C 74% 1.9 mph NNE3.1 kmh NNE 3.7 mph6.0 kmh 30.30 in1026.1 mb 0.00 in0.0 mm 0.00 in0.0 mm 0.00 in0.0 mm
02:10 AM 46.0°F7.8°C 37.9°F3.3°C 73% 2.3 mph NE3.7 kmh NE 4.7 mph7.6 kmh 30.30 in1026.1 mb 0.00 in0.0 mm 0.00 in0.0 mm 0.00 in0.0 mm
02:05 AM 45.9°F7.7°C 37.8°F3.2°C 73% 2.0 mph NE3.2 kmh NE 3.2 mph5.1 kmh 30.30 in1026.1 mb 0.00 in0.0 mm 0.00 in0.0 mm 0.00 in0.0 mm
02:00 AM 45.7°F7.6°C 37.2°F2.9°C 72% 3.2 mph NE5.1 kmh NE 5.3 mph8.5 kmh 30.30 in1026.1 mb 0.00 in0.0 mm 0.00 in0.0 mm 0.00 in0.0 mm
01:55 AM 45.4°F7.4°C 37.0°F2.8°C 72% 2.5 mph NE4.0 kmh NE 3.7 mph6.0 kmh 30.30 in1026.1 mb 0.00 in0.0 mm 0.00 in0.0 mm 0.00 in0.0 mm
01:50 AM 45.3°F7.4°C 36.7°F2.6°C 72% 2.6 mph NE4.2 kmh NE 4.2 mph6.8 kmh 30.30 in1026.1 mb 0.00 in0.0 mm 0.00 in0.0 mm 0.00 in0.0 mm
01:45 AM 45.4°F7.4°C 36.8°F2.7°C 72% 2.3 mph NE3.7 kmh NE 3.2 mph5.1 kmh 30.30 in1026.1 mb 0.00 in0.0 mm 0.00 in0.0 mm 0.00 in0.0 mm
01:40 AM 45.5°F7.5°C 36.8°F2.7°C 71% 1.8 mph NE2.9 kmh NE 3.2 mph5.1 kmh 30.30 in1026.1 mb 0.00 in0.0 mm 0.00 in0.0 mm 0.00 in0.0 mm
01:35 AM 45.5°F7.5°C 36.6°F2.6°C 71% 0.7 mph ENE1.1 kmh ENE 2.7 mph4.3 kmh 30.30 in1026.1 mb 0.00 in0.0 mm 0.00 in0.0 mm 0.00 in0.0 mm
01:30 AM 45.7°F7.6°C 36.5°F2.5°C 70% 2.2 mph NE3.5 kmh NE 3.7 mph6.0 kmh 30.30 in1026.1 mb 0.00 in0.0 mm 0.00 in0.0 mm 0.00 in0.0 mm
01:25 AM 45.9°F7.7°C 36.4°F2.4°C 69% 1.9 mph NE3.1 kmh NE 2.7 mph4.3 kmh 30.30 in1026.1 mb 0.00 in0.0 mm 0.00 in0.0 mm 0.00 in0.0 mm
01:20 AM 46.0°F7.8°C 36.6°F2.6°C 70% 1.9 mph NE3.1 kmh NE 4.2 mph6.8 kmh 30.30 in1026.1 mb 0.00 in0.0 mm 0.00 in0.0 mm 0.00 in0.0 mm
01:15 AM 46.0°F7.8°C 36.6°F2.6°C 70% 1.9 mph NE3.1 kmh NE 2.7 mph4.3 kmh 30.30 in1026.1 mb 0.00 in0.0 mm 0.00 in0.0 mm 0.00 in0.0 mm
01:10 AM 46.0°F7.8°C 36.1°F2.3°C 68% 1.8 mph NE2.9 kmh NE 2.2 mph3.5 kmh 30.30 in1026.1 mb 0.00 in0.0 mm 0.00 in0.0 mm 0.00 in0.0 mm
01:05 AM 46.0°F7.8°C 35.9°F2.2°C 68% 1.2 mph ENE1.9 kmh ENE 3.2 mph5.1 kmh 30.30 in1026.1 mb 0.00 in0.0 mm 0.00 in0.0 mm 0.00 in0.0 mm
01:00 AM 46.1°F7.8°C 35.9°F2.2°C 67% 1.6 mph E2.6 kmh E 3.2 mph5.1 kmh 30.31 in1026.4 mb 0.00 in0.0 mm 0.00 in0.0 mm 0.00 in0.0 mm
12:55 AM 46.2°F7.9°C 36.3°F2.4°C 68% 1.9 mph ESE3.1 kmh ESE 3.2 mph5.1 kmh 30.31 in1026.4 mb 0.00 in0.0 mm 0.00 in0.0 mm 0.00 in0.0 mm
12:50 AM 46.2°F7.9°C 35.9°F2.2°C 67% 0.7 mph NE1.1 kmh NE 3.2 mph5.1 kmh 30.31 in1026.4 mb 0.00 in0.0 mm 0.00 in0.0 mm 0.00 in0.0 mm
12:45 AM 46.4°F8.0°C 35.8°F2.1°C 66% 2.1 mph NE3.4 kmh NE 4.2 mph6.8 kmh 30.31 in1026.4 mb 0.00 in0.0 mm 0.00 in0.0 mm 0.00 in0.0 mm
12:40 AM 46.6°F8.1°C 35.9°F2.2°C 66% 1.5 mph ENE2.4 kmh ENE 3.2 mph5.1 kmh 30.31 in1026.4 mb 0.00 in0.0 mm 0.00 in0.0 mm 0.00 in0.0 mm
12:35 AM 46.6°F8.1°C 35.6°F2.0°C 65% 1.8 mph ENE2.9 kmh ENE 4.2 mph6.8 kmh 30.31 in1026.4 mb 0.00 in0.0 mm 0.00 in0.0 mm 0.00 in0.0 mm
12:30 AM 46.8°F8.2°C 35.9°F2.2°C 66% 1.7 mph NE2.7 kmh NE 3.7 mph6.0 kmh 30.31 in1026.4 mb 0.00 in0.0 mm 0.00 in0.0 mm 0.00 in0.0 mm
12:25 AM 46.8°F8.2°C 35.1°F1.7°C 64% 2.4 mph NE3.9 kmh NE 4.7 mph7.6 kmh 30.31 in1026.4 mb 0.00 in0.0 mm 0.00 in0.0 mm 0.00 in0.0 mm
12:20 AM 46.8°F8.2°C 35.5°F1.9°C 64% 2.5 mph NE4.0 kmh NE 3.2 mph5.1 kmh 30.31 in1026.4 mb 0.00 in0.0 mm 0.00 in0.0 mm 0.00 in0.0 mm
12:15 AM 46.9°F8.3°C 34.9°F1.6°C 63% 2.2 mph E3.5 kmh E 3.2 mph5.1 kmh 30.31 in1026.4 mb 0.00 in0.0 mm 0.00 in0.0 mm 0.00 in0.0 mm
12:10 AM 46.9°F8.3°C 35.2°F1.8°C 64% 2.3 mph NE3.7 kmh NE 3.2 mph5.1 kmh 30.31 in1026.4 mb 0.00 in0.0 mm 0.00 in0.0 mm 0.00 in0.0 mm
12:05 AM 46.9°F8.3°C 35.4°F1.9°C 64% 1.8 mph NE2.9 kmh NE 2.7 mph4.3 kmh 30.31 in1026.4 mb 0.00 in0.0 mm 0.00 in0.0 mm 0.00 in0.0 mm
12:00 AM 47.1°F8.4°C 35.3°F1.8°C 63% 1.5 mph NE2.4 kmh NE 2.7 mph4.3 kmh 30.31 in1026.4 mb 0.00 in0.0 mm 0.00 in0.0 mm 0.00 in0.0 mm